Terminal Aerodrome Forecast
Issued by NWS

Home | Current Version | Previous Version | Text Only | Print | Product List | Glossary On
Versions: 1 2 3 4 5 6 7 8 9 10 11 12 13 14 15 16 17 18 19
000
FTUS45 KABQ 181700
TAFGUP
TAF
KGUP 181730Z 1818/1918 17005KT P6SM VCSH BKN025 OVC040
      TEMPO 1819/1823 2SM -SHSN OVC008
     FM182300 32005KT P6SM VCSH BKN030 OVC050
     FM190600 VRB03KT 1SM BR SCT100
      TEMPO 1910/1914 1/4SM FG VV001=

USA.gov is the U.S. government's official web portal to all federal, state and local government web resources and services.